createdAt,value
2018-06-20T00:03:04.562Z,18.80
2018-06-20T00:07:08.392Z,18.90
2018-06-20T00:11:11.996Z,18.80
2018-06-20T00:15:16.027Z,18.80
2018-06-20T00:19:19.802Z,18.80
2018-06-20T00:23:23.619Z,18.80
2018-06-20T00:27:27.103Z,18.80
2018-06-20T00:31:30.676Z,18.90
2018-06-20T00:35:38.148Z,18.80
2018-06-20T00:39:42.072Z,18.80
2018-06-20T00:43:47.186Z,18.60
2018-06-20T00:47:51.430Z,18.50
2018-06-20T00:51:55.143Z,18.50
2018-06-20T00:56:10.140Z,18.60
2018-06-20T01:00:14.452Z,18.60
2018-06-20T01:04:18.920Z,18.60
2018-06-20T01:12:26.021Z,18.60
2018-06-20T01:16:29.550Z,18.50
2018-06-20T01:20:33.103Z,18.50
2018-06-20T01:24:36.827Z,18.50
2018-06-20T01:28:40.473Z,18.50
2018-06-20T01:32:44.618Z,18.50
2018-06-20T01:36:48.640Z,18.50
2018-06-20T01:40:53.416Z,18.40
2018-06-20T01:44:57.039Z,18.30
2018-06-20T01:49:00.602Z,18.30
2018-06-20T01:53:04.606Z,18.20
2018-06-20T01:57:08.359Z,18.20
2018-06-20T02:01:12.538Z,18.30
2018-06-20T02:05:16.605Z,18.30
2018-06-20T02:09:20.999Z,18.10
2018-06-20T02:13:24.839Z,18.10
2018-06-20T02:17:28.423Z,18.10
2018-06-20T02:21:31.947Z,18.10
2018-06-20T02:25:35.608Z,18.10
2018-06-20T02:29:39.180Z,17.90
2018-06-20T02:33:42.966Z,17.80
2018-06-20T02:37:47.238Z,17.70
2018-06-20T02:41:51.224Z,17.70
2018-06-20T02:45:54.928Z,17.80
2018-06-20T02:49:58.706Z,17.90
2018-06-20T02:54:02.295Z,17.80
2018-06-20T02:58:06.029Z,17.90
2018-06-20T03:02:10.000Z,17.80
2018-06-20T03:06:13.912Z,17.90
2018-06-20T03:10:17.886Z,17.90
2018-06-20T03:14:21.935Z,18.00
2018-06-20T03:18:25.593Z,18.10
2018-06-20T03:22:29.158Z,17.90
2018-06-20T03:26:32.830Z,17.80
2018-06-20T03:30:36.377Z,17.80
2018-06-20T03:34:40.435Z,17.70
2018-06-20T03:38:44.681Z,17.60
2018-06-20T03:42:48.522Z,17.50
2018-06-20T03:46:52.127Z,17.50
2018-06-20T03:50:55.669Z,17.50
2018-06-20T03:54:59.383Z,17.60
2018-06-20T03:59:03.054Z,17.70
2018-06-20T04:03:06.732Z,17.70
2018-06-20T04:07:10.282Z,17.80
2018-06-20T04:11:14.253Z,17.70
2018-06-20T04:15:18.084Z,17.70
2018-06-20T04:19:22.035Z,17.70
2018-06-20T04:23:25.540Z,17.70
2018-06-20T04:27:29.047Z,17.80
2018-06-20T04:31:32.655Z,18.00
2018-06-20T04:35:36.257Z,18.20
2018-06-20T04:39:39.984Z,18.10
2018-06-20T04:51:50.955Z,18.20
2018-06-20T04:55:54.716Z,18.20
2018-06-20T04:59:58.275Z,18.30
2018-06-20T05:04:01.859Z,18.40
2018-06-20T05:08:05.483Z,18.50
2018-06-20T05:12:09.116Z,18.60
2018-06-20T05:16:13.162Z,18.70
2018-06-20T05:20:17.201Z,18.80
2018-06-20T05:24:21.328Z,19.00
2018-06-20T05:28:25.211Z,19.00
2018-06-20T05:32:28.787Z,19.00
2018-06-20T05:36:32.315Z,19.00
2018-06-20T05:40:36.171Z,18.80
2018-06-20T05:44:39.819Z,18.80
2018-06-20T05:48:44.678Z,18.90
2018-06-20T05:52:48.481Z,19.10
2018-06-20T05:56:52.334Z,19.80
2018-06-20T06:00:55.942Z,20.30
2018-06-20T06:04:59.540Z,20.80
2018-06-20T06:09:03.374Z,21.00
2018-06-20T06:13:07.270Z,20.90
2018-06-20T06:17:10.828Z,21.20
2018-06-20T06:21:14.890Z,21.50
2018-06-20T06:25:19.170Z,21.70
2018-06-20T06:29:23.042Z,21.80
2018-06-20T06:33:26.566Z,22.40
2018-06-20T06:37:30.135Z,22.90
2018-06-20T06:41:33.827Z,23.30
2018-06-20T06:45:37.382Z,24.00
2018-06-20T06:49:40.976Z,24.40
2018-06-20T06:53:45.447Z,25.30
2018-06-20T06:57:49.091Z,26.50
2018-06-20T07:01:52.709Z,27.20
2018-06-20T07:05:59.768Z,27.80
2018-06-20T07:10:03.556Z,28.90
2018-06-20T07:14:07.271Z,28.20
2018-06-20T07:18:10.849Z,28.30
2018-06-20T07:22:14.591Z,28.60
2018-06-20T07:26:18.365Z,28.90
2018-06-20T07:30:21.947Z,28.80
2018-06-20T07:34:25.835Z,29.10
2018-06-20T07:38:29.347Z,29.30
2018-06-20T07:42:33.217Z,30.60
2018-06-20T07:46:36.947Z,30.20
2018-06-20T07:50:41.589Z,30.50
2018-06-20T07:54:45.392Z,31.00
2018-06-20T07:58:54.303Z,30.30
2018-06-20T08:03:14.347Z,30.10
2018-06-20T08:07:23.236Z,28.90
2018-06-20T08:11:32.027Z,28.60
2018-06-20T08:15:41.818Z,27.90
2018-06-20T08:19:52.019Z,27.00
2018-06-20T08:23:55.830Z,25.70
2018-06-20T08:28:01.465Z,26.50
2018-06-20T08:32:05.113Z,28.30
2018-06-20T08:36:08.650Z,28.40
2018-06-20T08:40:12.293Z,27.80
2018-06-20T08:44:16.112Z,26.50
2018-06-20T08:48:19.706Z,25.60
2018-06-20T08:52:23.572Z,25.40
2018-06-20T09:00:35.593Z,25.20
2018-06-20T09:05:42.862Z,25.20
2018-06-20T09:09:51.959Z,25.40
2018-06-20T09:14:00.861Z,27.60
2018-06-20T09:18:10.051Z,29.70
2018-06-20T09:22:14.443Z,30.00
2018-06-20T09:26:18.180Z,29.30
2018-06-20T09:30:21.896Z,29.10
2018-06-20T09:34:25.418Z,28.80
2018-06-20T09:38:29.334Z,28.20
2018-06-20T09:42:33.022Z,29.50
2018-06-20T09:46:36.751Z,30.10
2018-06-20T09:50:50.087Z,28.70
2018-06-20T09:54:53.809Z,27.50
2018-06-20T09:59:01.600Z,26.70
2018-06-20T10:03:10.678Z,27.80
2018-06-20T10:07:14.978Z,29.10
2018-06-20T10:12:28.252Z,29.60
2018-06-20T10:16:32.249Z,29.40
2018-06-20T10:20:35.890Z,29.30
2018-06-20T10:24:39.446Z,28.20
2018-06-20T10:28:44.917Z,27.70
2018-06-20T10:32:48.688Z,28.80
2018-06-20T10:36:52.318Z,29.70
2018-06-20T10:40:56.194Z,29.80
2018-06-20T10:47:06.804Z,29.30
2018-06-20T10:51:14.642Z,28.80
2018-06-20T10:55:19.002Z,27.20
2018-06-20T10:59:28.923Z,26.90
2018-06-20T11:03:38.007Z,27.30
2018-06-20T11:07:46.892Z,28.10
2018-06-20T11:11:55.810Z,28.80
2018-06-20T11:15:59.446Z,29.40
2018-06-20T11:20:08.349Z,29.70
2018-06-20T11:24:12.219Z,29.50
2018-06-20T11:28:17.070Z,29.20
2018-06-20T11:32:20.890Z,29.40
2018-06-20T11:36:24.614Z,28.70
2018-06-20T11:40:28.170Z,28.50
2018-06-20T11:44:31.728Z,28.10
2018-06-20T11:48:36.367Z,28.00
2018-06-20T11:52:46.015Z,27.60
2018-06-20T11:56:49.654Z,28.40
2018-06-20T12:03:06.174Z,28.50
2018-06-20T12:07:15.214Z,28.00
2018-06-20T12:11:24.191Z,27.70
2018-06-20T12:15:33.127Z,27.60
2018-06-20T12:19:42.081Z,28.10
2018-06-20T12:23:51.118Z,28.30
2018-06-20T12:27:59.917Z,27.70
2018-06-20T12:32:08.859Z,27.00
2018-06-20T12:36:18.171Z,26.80
2018-06-20T12:40:28.148Z,25.80
2018-06-20T12:44:37.071Z,25.50
2018-06-20T12:48:40.632Z,26.10
2018-06-20T12:52:45.130Z,27.20
2018-06-20T12:56:49.028Z,27.80
2018-06-20T13:00:53.975Z,27.90
2018-06-20T13:04:57.507Z,27.00
2018-06-20T13:09:01.472Z,26.70
2018-06-20T13:13:06.115Z,26.00
2018-06-20T13:17:09.681Z,25.70
2018-06-20T13:21:15.585Z,25.40
2018-06-20T13:25:19.334Z,24.80
2018-06-20T13:29:24.805Z,24.30
2018-06-20T13:33:37.448Z,25.20
2018-06-20T13:37:47.348Z,25.90
2018-06-20T13:42:05.530Z,26.90
2018-06-20T13:46:16.448Z,27.40
2018-06-20T13:50:20.164Z,27.50
2018-06-20T13:54:27.602Z,27.80
2018-06-20T13:58:31.672Z,27.60
2018-06-20T14:06:38.874Z,27.20
2018-06-20T14:10:46.434Z,26.50
2018-06-20T14:14:50.282Z,27.30
2018-06-20T14:18:53.820Z,27.40
2018-06-20T14:22:57.484Z,27.70
2018-06-20T14:27:01.123Z,27.40
2018-06-20T14:31:10.172Z,27.20
2018-06-20T14:35:19.526Z,27.00
2018-06-20T14:39:28.475Z,25.80
2018-06-20T14:43:37.320Z,24.50
2018-06-20T14:55:59.599Z,24.00
2018-06-20T15:00:03.402Z,23.90
2018-06-20T15:04:07.687Z,24.20
2018-06-20T15:08:11.375Z,24.20
2018-06-20T15:12:22.041Z,24.80
2018-06-20T15:16:31.074Z,24.60
2018-06-20T15:20:35.961Z,25.20
2018-06-20T15:24:41.524Z,24.90
2018-06-20T15:28:50.755Z,25.00
2018-06-20T15:35:05.519Z,24.50
2018-06-20T15:39:11.576Z,25.10
2018-06-20T15:43:15.507Z,25.10
2018-06-20T15:47:20.217Z,26.20
2018-06-20T15:51:23.950Z,25.80
2018-06-20T15:55:27.508Z,25.40
2018-06-20T15:59:33.510Z,26.20
2018-06-20T16:03:40.707Z,26.90
2018-06-20T16:07:45.998Z,26.20
2018-06-20T16:11:49.843Z,26.60
2018-06-20T16:15:53.479Z,25.90
2018-06-20T16:20:07.325Z,25.90
2018-06-20T16:24:18.911Z,26.40
2018-06-20T16:28:28.177Z,26.50
2018-06-20T16:32:32.880Z,26.70
2018-06-20T16:36:36.681Z,26.70
2018-06-20T16:40:40.383Z,26.00
2018-06-20T16:44:45.530Z,26.20
2018-06-20T16:48:49.369Z,25.80
2018-06-20T16:52:53.079Z,25.60
2018-06-20T17:01:12.594Z,24.50
2018-06-20T17:05:17.300Z,24.80
2018-06-20T17:09:24.388Z,24.50
2018-06-20T17:14:32.796Z,24.50
2018-06-20T17:19:45.659Z,24.20
2018-06-20T17:23:54.786Z,24.00
2018-06-20T17:28:00.715Z,24.40
2018-06-20T17:32:04.336Z,24.40
2018-06-20T17:36:09.242Z,24.00
2018-06-20T17:40:15.878Z,23.90
2018-06-20T17:44:19.864Z,23.80
2018-06-20T17:48:23.727Z,23.90
2018-06-20T17:52:32.816Z,24.10
2018-06-20T17:56:36.418Z,24.10
2018-06-20T18:00:47.324Z,24.30
2018-06-20T18:04:56.383Z,24.20
2018-06-20T18:09:05.858Z,24.00
2018-06-20T18:13:09.867Z,24.00
2018-06-20T18:17:13.723Z,23.70
2018-06-20T18:21:17.346Z,24.00
2018-06-20T18:25:21.100Z,24.00
2018-06-20T18:29:24.867Z,24.30
2018-06-20T18:33:33.538Z,24.20
2018-06-20T18:37:37.188Z,24.00
2018-06-20T18:41:40.833Z,24.00
2018-06-20T18:45:45.653Z,24.00
2018-06-20T18:49:51.391Z,23.90
2018-06-20T18:53:55.208Z,23.80
2018-06-20T18:58:04.047Z,23.80
2018-06-20T19:02:13.194Z,23.70
2018-06-20T19:06:24.845Z,23.60
2018-06-20T19:10:37.800Z,23.50
2018-06-20T19:14:42.606Z,23.40
2018-06-20T19:18:46.433Z,23.10
2018-06-20T19:22:50.013Z,23.10
2018-06-20T19:26:53.820Z,23.00
2018-06-20T19:30:57.411Z,22.90
2018-06-20T19:35:01.766Z,22.80
2018-06-20T19:39:12.676Z,22.70
2018-06-20T19:47:20.000Z,22.50
2018-06-20T19:51:23.535Z,22.50
2018-06-20T19:55:27.074Z,22.30
2018-06-20T19:59:31.301Z,22.20
2018-06-20T20:03:35.044Z,22.10
2018-06-20T20:07:38.804Z,22.10
2018-06-20T20:11:43.355Z,22.10
2018-06-20T20:15:48.255Z,22.00
2018-06-20T20:19:51.875Z,21.90
2018-06-20T20:23:56.908Z,21.90
2018-06-20T20:28:00.592Z,21.90
2018-06-20T20:32:05.074Z,21.80
2018-06-20T20:36:09.964Z,21.80
2018-06-20T20:40:13.910Z,21.60
2018-06-20T20:44:18.839Z,21.60
2018-06-20T20:48:30.590Z,21.50
2018-06-20T20:52:34.199Z,21.40
2018-06-20T20:56:38.150Z,21.50
2018-06-20T21:00:42.147Z,21.40
2018-06-20T21:04:46.145Z,21.30
2018-06-20T21:08:50.136Z,21.20
2018-06-20T21:12:53.744Z,21.10
2018-06-20T21:16:57.459Z,21.00
2018-06-20T21:21:03.163Z,21.00
2018-06-20T21:25:06.777Z,21.00
2018-06-20T21:29:10.359Z,20.80
2018-06-20T21:33:14.228Z,20.80
2018-06-20T21:37:18.110Z,20.80
2018-06-20T21:41:21.807Z,20.70
2018-06-20T21:45:25.330Z,20.60
2018-06-20T21:49:29.002Z,20.60
2018-06-20T21:57:36.010Z,20.40
2018-06-20T22:01:44.965Z,20.30
2018-06-20T22:05:49.355Z,20.30
2018-06-20T22:09:53.242Z,20.40
2018-06-20T22:13:56.796Z,20.40
2018-06-20T22:18:00.301Z,20.30
2018-06-20T22:22:04.019Z,20.10
2018-06-20T22:26:14.153Z,20.00
2018-06-20T22:30:17.935Z,20.00
2018-06-20T22:34:21.650Z,20.00
2018-06-20T22:38:25.308Z,19.90
2018-06-20T22:42:32.607Z,19.70
2018-06-20T22:46:36.313Z,19.70
2018-06-20T22:50:39.815Z,19.70
2018-06-20T22:54:45.459Z,19.80
2018-06-20T22:58:49.726Z,19.60
2018-06-20T23:02:53.807Z,19.60
2018-06-20T23:06:57.447Z,19.40
2018-06-20T23:15:05.817Z,19.00
2018-06-20T23:19:09.858Z,18.90
2018-06-20T23:23:13.657Z,18.90
2018-06-20T23:27:17.468Z,19.10
2018-06-20T23:31:21.235Z,19.10
2018-06-20T23:35:29.131Z,19.20
2018-06-20T23:39:32.618Z,19.10
2018-06-20T23:43:36.291Z,19.00
2018-06-20T23:47:39.881Z,18.90
2018-06-20T23:51:43.806Z,18.90
2018-06-20T23:55:47.674Z,18.90
2018-06-20T23:59:51.302Z,18.70
